sensor_id;sensor_type;location;lat;lon;timestamp;P1;durP1;ratioP1;P2;durP2;ratioP2
13605;SDS011;6874;52.084;5.090;2023-03-14T00:00:57;245.30;;;236.47;;
13605;SDS011;6874;52.084;5.090;2023-03-14T00:03:23;231.23;;;222.93;;
13605;SDS011;6874;52.084;5.090;2023-03-14T00:05:49;239.10;;;230.50;;
13605;SDS011;6874;52.084;5.090;2023-03-14T00:08:14;233.53;;;225.07;;
13605;SDS011;6874;52.084;5.090;2023-03-14T00:10:40;228.47;;;220.27;;
13605;SDS011;6874;52.084;5.090;2023-03-14T00:13:06;223.97;;;215.97;;
13605;SDS011;6874;52.084;5.090;2023-03-14T00:15:32;222.03;;;214.07;;
13605;SDS011;6874;52.084;5.090;2023-03-14T00:17:59;216.63;;;208.83;;
13605;SDS011;6874;52.084;5.090;2023-03-14T00:20:24;221.27;;;213.37;;
13605;SDS011;6874;52.084;5.090;2023-03-14T00:22:50;220.70;;;212.87;;
13605;SDS011;6874;52.084;5.090;2023-03-14T00:25:15;215.90;;;208.23;;
13605;SDS011;6874;52.084;5.090;2023-03-14T00:27:41;218.60;;;210.87;;
13605;SDS011;6874;52.084;5.090;2023-03-14T00:30:07;220.77;;;212.87;;
13605;SDS011;6874;52.084;5.090;2023-03-14T00:32:33;225.63;;;217.53;;
13605;SDS011;6874;52.084;5.090;2023-03-14T00:34:59;220.33;;;212.57;;
13605;SDS011;6874;52.084;5.090;2023-03-14T00:37:25;219.47;;;211.63;;
13605;SDS011;6874;52.084;5.090;2023-03-14T00:39:51;212.67;;;205.07;;
13605;SDS011;6874;52.084;5.090;2023-03-14T00:42:17;215.63;;;207.97;;
13605;SDS011;6874;52.084;5.090;2023-03-14T00:44:42;214.00;;;206.53;;
13605;SDS011;6874;52.084;5.090;2023-03-14T00:47:08;208.87;;;201.47;;
13605;SDS011;6874;52.084;5.090;2023-03-14T00:49:33;215.97;;;208.37;;
13605;SDS011;6874;52.084;5.090;2023-03-14T00:51:59;216.93;;;209.40;;
13605;SDS011;6874;52.084;5.090;2023-03-14T00:54:25;211.70;;;204.37;;
13605;SDS011;6874;52.084;5.090;2023-03-14T00:56:50;215.40;;;207.87;;
13605;SDS011;6874;52.084;5.090;2023-03-14T00:59:16;203.60;;;196.47;;
13605;SDS011;6874;52.084;5.090;2023-03-14T01:01:42;214.13;;;206.63;;
13605;SDS011;6874;52.084;5.090;2023-03-14T01:04:08;206.57;;;199.23;;
13605;SDS011;6874;52.084;5.090;2023-03-14T01:06:34;197.70;;;190.73;;
13605;SDS011;6874;52.084;5.090;2023-03-14T01:09:00;203.70;;;196.60;;
13605;SDS011;6874;52.084;5.090;2023-03-14T01:11:26;196.63;;;189.73;;
13605;SDS011;6874;52.084;5.090;2023-03-14T01:13:54;206.73;;;199.57;;
13605;SDS011;6874;52.084;5.090;2023-03-14T01:16:21;200.67;;;193.70;;
13605;SDS011;6874;52.084;5.090;2023-03-14T01:18:48;205.63;;;198.57;;
13605;SDS011;6874;52.084;5.090;2023-03-14T01:21:15;196.83;;;190.00;;
13605;SDS011;6874;52.084;5.090;2023-03-14T01:23:43;193.60;;;186.83;;
13605;SDS011;6874;52.084;5.090;2023-03-14T01:26:11;192.10;;;185.30;;
13605;SDS011;6874;52.084;5.090;2023-03-14T01:28:37;191.67;;;185.00;;
13605;SDS011;6874;52.084;5.090;2023-03-14T01:31:04;188.67;;;182.10;;
13605;SDS011;6874;52.084;5.090;2023-03-14T01:33:31;194.50;;;187.80;;
13605;SDS011;6874;52.084;5.090;2023-03-14T01:35:56;179.63;;;173.40;;
13605;SDS011;6874;52.084;5.090;2023-03-14T01:38:22;181.83;;;175.47;;
13605;SDS011;6874;52.084;5.090;2023-03-14T01:40:48;185.00;;;178.53;;
13605;SDS011;6874;52.084;5.090;2023-03-14T01:43:15;181.33;;;175.03;;
13605;SDS011;6874;52.084;5.090;2023-03-14T01:46:44;185.73;;;179.33;;
13605;SDS011;6874;52.084;5.090;2023-03-14T01:48:57;181.03;;;174.83;;
13605;SDS011;6874;52.084;5.090;2023-03-14T01:51:47;167.13;;;161.37;;
13605;SDS011;6874;52.084;5.090;2023-03-14T01:54:23;163.47;;;157.83;;
13605;SDS011;6874;52.084;5.090;2023-03-14T01:56:57;166.93;;;161.23;;
13605;SDS011;6874;52.084;5.090;2023-03-14T01:59:29;165.33;;;159.63;;
13605;SDS011;6874;52.084;5.090;2023-03-14T02:01:56;167.37;;;161.67;;
13605;SDS011;6874;52.084;5.090;2023-03-14T02:04:22;163.93;;;158.33;;
13605;SDS011;6874;52.084;5.090;2023-03-14T02:10:11;163.03;;;157.40;;
13605;SDS011;6874;52.084;5.090;2023-03-14T02:12:37;153.73;;;148.50;;
13605;SDS011;6874;52.084;5.090;2023-03-14T02:15:04;161.37;;;155.90;;
13605;SDS011;6874;52.084;5.090;2023-03-14T02:17:30;148.83;;;143.77;;
13605;SDS011;6874;52.084;5.090;2023-03-14T02:20:18;146.83;;;141.83;;
13605;SDS011;6874;52.084;5.090;2023-03-14T02:23:03;150.03;;;144.87;;
13605;SDS011;6874;52.084;5.090;2023-03-14T02:25:39;142.13;;;137.23;;
13605;SDS011;6874;52.084;5.090;2023-03-14T02:28:10;142.97;;;138.10;;
13605;SDS011;6874;52.084;5.090;2023-03-14T02:30:36;150.60;;;145.53;;
13605;SDS011;6874;52.084;5.090;2023-03-14T02:33:08;145.50;;;140.50;;
13605;SDS011;6874;52.084;5.090;2023-03-14T02:35:55;151.33;;;146.23;;
13605;SDS011;6874;52.084;5.090;2023-03-14T02:38:31;146.43;;;141.50;;
13605;SDS011;6874;52.084;5.090;2023-03-14T02:41:02;135.37;;;130.80;;
13605;SDS011;6874;52.084;5.090;2023-03-14T02:43:28;140.53;;;135.73;;
13605;SDS011;6874;52.084;5.090;2023-03-14T02:45:54;136.57;;;131.97;;
13605;SDS011;6874;52.084;5.090;2023-03-14T02:48:27;134.50;;;129.93;;
13605;SDS011;6874;52.084;5.090;2023-03-14T02:50:57;140.87;;;136.07;;
13605;SDS011;6874;52.084;5.090;2023-03-14T02:53:28;137.27;;;132.67;;
13605;SDS011;6874;52.084;5.090;2023-03-14T02:55:59;131.30;;;126.83;;
13605;SDS011;6874;52.084;5.090;2023-03-14T02:58:25;133.00;;;128.47;;
13605;SDS011;6874;52.084;5.090;2023-03-14T03:00:52;138.50;;;133.83;;
13605;SDS011;6874;52.084;5.090;2023-03-14T03:03:18;131.33;;;126.93;;
13605;SDS011;6874;52.084;5.090;2023-03-14T03:05:47;133.27;;;128.77;;
13605;SDS011;6874;52.084;5.090;2023-03-14T03:08:18;132.27;;;127.80;;
13605;SDS011;6874;52.084;5.090;2023-03-14T03:10:44;130.67;;;126.23;;
13605;SDS011;6874;52.084;5.090;2023-03-14T03:13:09;128.73;;;124.37;;
13605;SDS011;6874;52.084;5.090;2023-03-14T03:15:35;130.53;;;126.17;;
13605;SDS011;6874;52.084;5.090;2023-03-14T03:18:01;119.73;;;115.63;;
13605;SDS011;6874;52.084;5.090;2023-03-14T03:20:26;117.90;;;113.93;;
13605;SDS011;6874;52.084;5.090;2023-03-14T03:22:52;127.67;;;123.37;;
13605;SDS011;6874;52.084;5.090;2023-03-14T03:25:17;126.33;;;122.07;;
13605;SDS011;6874;52.084;5.090;2023-03-14T03:27:43;121.90;;;117.80;;
13605;SDS011;6874;52.084;5.090;2023-03-14T03:30:09;114.53;;;110.67;;
13605;SDS011;6874;52.084;5.090;2023-03-14T03:32:35;120.20;;;116.20;;
13605;SDS011;6874;52.084;5.090;2023-03-14T03:35:04;121.63;;;117.57;;
13605;SDS011;6874;52.084;5.090;2023-03-14T03:37:31;115.87;;;111.97;;
13605;SDS011;6874;52.084;5.090;2023-03-14T03:39:57;115.97;;;112.03;;
13605;SDS011;6874;52.084;5.090;2023-03-14T03:42:23;119.97;;;115.90;;
13605;SDS011;6874;52.084;5.090;2023-03-14T03:44:48;112.37;;;108.53;;
13605;SDS011;6874;52.084;5.090;2023-03-14T03:47:14;113.20;;;109.40;;
13605;SDS011;6874;52.084;5.090;2023-03-14T03:49:40;114.77;;;110.90;;
13605;SDS011;6874;52.084;5.090;2023-03-14T03:52:06;109.53;;;105.87;;
13605;SDS011;6874;52.084;5.090;2023-03-14T03:54:32;110.60;;;106.90;;
13605;SDS011;6874;52.084;5.090;2023-03-14T03:56:57;107.00;;;103.37;;
13605;SDS011;6874;52.084;5.090;2023-03-14T03:59:23;107.90;;;104.27;;
13605;SDS011;6874;52.084;5.090;2023-03-14T04:01:48;113.63;;;109.80;;
13605;SDS011;6874;52.084;5.090;2023-03-14T04:04:14;110.93;;;107.20;;
13605;SDS011;6874;52.084;5.090;2023-03-14T04:06:40;107.57;;;103.97;;
13605;SDS011;6874;52.084;5.090;2023-03-14T04:09:07;105.87;;;102.30;;
13605;SDS011;6874;52.084;5.090;2023-03-14T04:11:33;107.57;;;103.97;;
13605;SDS011;6874;52.084;5.090;2023-03-14T04:13:58;109.50;;;105.80;;
13605;SDS011;6874;52.084;5.090;2023-03-14T04:16:24;107.23;;;103.67;;
13605;SDS011;6874;52.084;5.090;2023-03-14T04:18:51;111.43;;;107.67;;
13605;SDS011;6874;52.084;5.090;2023-03-14T04:21:17;104.80;;;101.30;;
13605;SDS011;6874;52.084;5.090;2023-03-14T04:23:43;104.17;;;100.67;;
13605;SDS011;6874;52.084;5.090;2023-03-14T04:26:09;105.77;;;102.20;;
13605;SDS011;6874;52.084;5.090;2023-03-14T04:28:34;106.73;;;103.17;;
13605;SDS011;6874;52.084;5.090;2023-03-14T04:31:07;111.57;;;107.77;;
13605;SDS011;6874;52.084;5.090;2023-03-14T04:33:34;109.73;;;106.03;;
13605;SDS011;6874;52.084;5.090;2023-03-14T04:36:01;107.67;;;104.00;;
13605;SDS011;6874;52.084;5.090;2023-03-14T04:38:26;102.83;;;99.37;;
13605;SDS011;6874;52.084;5.090;2023-03-14T04:40:52;101.30;;;97.87;;
13605;SDS011;6874;52.084;5.090;2023-03-14T04:43:17;103.57;;;100.07;;
13605;SDS011;6874;52.084;5.090;2023-03-14T04:45:43;104.07;;;100.57;;
13605;SDS011;6874;52.084;5.090;2023-03-14T04:48:09;102.17;;;98.70;;
13605;SDS011;6874;52.084;5.090;2023-03-14T04:50:34;105.67;;;102.10;;
13605;SDS011;6874;52.084;5.090;2023-03-14T04:53:00;106.07;;;102.43;;
13605;SDS011;6874;52.084;5.090;2023-03-14T04:55:25;103.43;;;99.90;;
13605;SDS011;6874;52.084;5.090;2023-03-14T04:57:51;100.10;;;96.70;;
13605;SDS011;6874;52.084;5.090;2023-03-14T05:00:17;100.70;;;97.30;;
13605;SDS011;6874;52.084;5.090;2023-03-14T05:02:43;100.47;;;97.07;;
13605;SDS011;6874;52.084;5.090;2023-03-14T05:05:09;99.70;;;96.30;;
13605;SDS011;6874;52.084;5.090;2023-03-14T05:07:35;107.30;;;103.63;;
13605;SDS011;6874;52.084;5.090;2023-03-14T05:10:01;106.10;;;102.50;;
13605;SDS011;6874;52.084;5.090;2023-03-14T05:12:26;106.47;;;102.87;;
13605;SDS011;6874;52.084;5.090;2023-03-14T05:14:52;97.27;;;93.97;;
13605;SDS011;6874;52.084;5.090;2023-03-14T05:17:17;102.07;;;98.60;;
13605;SDS011;6874;52.084;5.090;2023-03-14T05:19:43;104.57;;;101.07;;
13605;SDS011;6874;52.084;5.090;2023-03-14T05:22:09;103.27;;;99.77;;
13605;SDS011;6874;52.084;5.090;2023-03-14T05:24:35;103.60;;;100.10;;
13605;SDS011;6874;52.084;5.090;2023-03-14T05:27:01;103.93;;;100.43;;
13605;SDS011;6874;52.084;5.090;2023-03-14T05:29:27;95.97;;;92.73;;
13605;SDS011;6874;52.084;5.090;2023-03-14T05:31:52;97.43;;;94.13;;
13605;SDS011;6874;52.084;5.090;2023-03-14T05:34:18;96.23;;;93.00;;
13605;SDS011;6874;52.084;5.090;2023-03-14T05:36:43;101.10;;;97.67;;
13605;SDS011;6874;52.084;5.090;2023-03-14T05:39:09;96.07;;;92.77;;
13605;SDS011;6874;52.084;5.090;2023-03-14T05:41:34;101.13;;;97.70;;
13605;SDS011;6874;52.084;5.090;2023-03-14T05:44:00;100.13;;;96.77;;
13605;SDS011;6874;52.084;5.090;2023-03-14T05:46:26;102.13;;;98.70;;
13605;SDS011;6874;52.084;5.090;2023-03-14T05:48:51;98.90;;;95.57;;
13605;SDS011;6874;52.084;5.090;2023-03-14T05:51:17;91.37;;;88.30;;
13605;SDS011;6874;52.084;5.090;2023-03-14T05:53:42;90.10;;;87.00;;
13605;SDS011;6874;52.084;5.090;2023-03-14T05:56:08;97.73;;;94.37;;
13605;SDS011;6874;52.084;5.090;2023-03-14T05:58:34;96.07;;;92.73;;
13605;SDS011;6874;52.084;5.090;2023-03-14T06:01:03;105.67;;;102.07;;
13605;SDS011;6874;52.084;5.090;2023-03-14T06:03:30;98.30;;;94.90;;
13605;SDS011;6874;52.084;5.090;2023-03-14T06:05:56;91.77;;;88.57;;
13605;SDS011;6874;52.084;5.090;2023-03-14T06:08:22;98.47;;;95.07;;
13605;SDS011;6874;52.084;5.090;2023-03-14T06:10:47;102.53;;;98.93;;
13605;SDS011;6874;52.084;5.090;2023-03-14T06:13:13;96.20;;;92.90;;
13605;SDS011;6874;52.084;5.090;2023-03-14T06:15:40;104.70;;;101.10;;
13605;SDS011;6874;52.084;5.090;2023-03-14T06:18:06;116.53;;;112.33;;
13605;SDS011;6874;52.084;5.090;2023-03-14T06:20:31;111.33;;;107.43;;
13605;SDS011;6874;52.084;5.090;2023-03-14T06:22:58;119.00;;;114.77;;
13605;SDS011;6874;52.084;5.090;2023-03-14T06:25:23;119.83;;;115.60;;
13605;SDS011;6874;52.084;5.090;2023-03-14T06:27:49;128.93;;;124.33;;
13605;SDS011;6874;52.084;5.090;2023-03-14T06:30:15;134.10;;;129.33;;
13605;SDS011;6874;52.084;5.090;2023-03-14T06:32:41;136.10;;;131.30;;
13605;SDS011;6874;52.084;5.090;2023-03-14T06:35:06;115.53;;;111.57;;
13605;SDS011;6874;52.084;5.090;2023-03-14T06:37:33;111.90;;;108.13;;
13605;SDS011;6874;52.084;5.090;2023-03-14T06:39:59;107.70;;;104.10;;
13605;SDS011;6874;52.084;5.090;2023-03-14T06:42:24;112.70;;;108.87;;
13605;SDS011;6874;52.084;5.090;2023-03-14T06:44:50;119.53;;;115.53;;
13605;SDS011;6874;52.084;5.090;2023-03-14T06:47:16;119.67;;;115.60;;
13605;SDS011;6874;52.084;5.090;2023-03-14T06:49:41;131.53;;;127.10;;
13605;SDS011;6874;52.084;5.090;2023-03-14T06:52:07;138.10;;;133.43;;
13605;SDS011;6874;52.084;5.090;2023-03-14T06:54:32;132.07;;;127.57;;
13605;SDS011;6874;52.084;5.090;2023-03-14T06:56:58;126.20;;;121.93;;
13605;SDS011;6874;52.084;5.090;2023-03-14T06:59:25;138.20;;;133.57;;
13605;SDS011;6874;52.084;5.090;2023-03-14T07:01:50;130.97;;;126.57;;
13605;SDS011;6874;52.084;5.090;2023-03-14T07:04:16;134.00;;;129.50;;
13605;SDS011;6874;52.084;5.090;2023-03-14T07:06:42;137.30;;;132.67;;
13605;SDS011;6874;52.084;5.090;2023-03-14T07:09:09;128.40;;;124.00;;
13605;SDS011;6874;52.084;5.090;2023-03-14T07:11:36;144.93;;;140.03;;
13605;SDS011;6874;52.084;5.090;2023-03-14T07:14:01;133.60;;;129.00;;
13605;SDS011;6874;52.084;5.090;2023-03-14T07:16:27;137.63;;;132.90;;
13605;SDS011;6874;52.084;5.090;2023-03-14T07:18:56;136.10;;;131.43;;
13605;SDS011;6874;52.084;5.090;2023-03-14T07:21:22;137.47;;;132.80;;
13605;SDS011;6874;52.084;5.090;2023-03-14T07:23:47;125.93;;;121.63;;
13605;SDS011;6874;52.084;5.090;2023-03-14T07:26:13;130.83;;;126.33;;
13605;SDS011;6874;52.084;5.090;2023-03-14T07:28:39;125.77;;;121.47;;
13605;SDS011;6874;52.084;5.090;2023-03-14T07:31:04;127.20;;;122.87;;
13605;SDS011;6874;52.084;5.090;2023-03-14T07:33:30;132.67;;;128.10;;
13605;SDS011;6874;52.084;5.090;2023-03-14T07:35:56;129.90;;;125.50;;
13605;SDS011;6874;52.084;5.090;2023-03-14T07:38:22;127.80;;;123.40;;
13605;SDS011;6874;52.084;5.090;2023-03-14T07:40:47;134.00;;;129.43;;
13605;SDS011;6874;52.084;5.090;2023-03-14T07:43:13;122.73;;;118.53;;
13605;SDS011;6874;52.084;5.090;2023-03-14T07:45:38;117.37;;;113.37;;
13605;SDS011;6874;52.084;5.090;2023-03-14T07:48:04;124.53;;;120.33;;
13605;SDS011;6874;52.084;5.090;2023-03-14T07:50:29;123.67;;;119.47;;
13605;SDS011;6874;52.084;5.090;2023-03-14T07:52:55;114.40;;;110.50;;
13605;SDS011;6874;52.084;5.090;2023-03-14T07:55:20;118.57;;;114.57;;
13605;SDS011;6874;52.084;5.090;2023-03-14T07:57:46;115.03;;;111.13;;
13605;SDS011;6874;52.084;5.090;2023-03-14T08:00:12;116.03;;;112.07;;
13605;SDS011;6874;52.084;5.090;2023-03-14T08:02:39;114.63;;;110.73;;
13605;SDS011;6874;52.084;5.090;2023-03-14T08:05:05;112.73;;;108.93;;
13605;SDS011;6874;52.084;5.090;2023-03-14T08:07:32;111.20;;;107.40;;
13605;SDS011;6874;52.084;5.090;2023-03-14T08:09:58;117.67;;;113.67;;
13605;SDS011;6874;52.084;5.090;2023-03-14T08:12:24;112.53;;;108.73;;
13605;SDS011;6874;52.084;5.090;2023-03-14T08:14:49;111.60;;;107.80;;
13605;SDS011;6874;52.084;5.090;2023-03-14T08:17:15;99.30;;;95.90;;
13605;SDS011;6874;52.084;5.090;2023-03-14T08:19:41;96.77;;;93.53;;
13605;SDS011;6874;52.084;5.090;2023-03-14T08:22:06;87.63;;;84.70;;
13605;SDS011;6874;52.084;5.090;2023-03-14T08:24:32;76.23;;;73.67;;
13605;SDS011;6874;52.084;5.090;2023-03-14T08:26:58;75.20;;;72.67;;
13605;SDS011;6874;52.084;5.090;2023-03-14T08:29:23;73.00;;;70.53;;
13605;SDS011;6874;52.084;5.090;2023-03-14T08:31:49;78.00;;;75.37;;
13605;SDS011;6874;52.084;5.090;2023-03-14T08:34:15;70.30;;;67.93;;
13605;SDS011;6874;52.084;5.090;2023-03-14T08:36:40;64.10;;;61.93;;
13605;SDS011;6874;52.084;5.090;2023-03-14T08:39:06;63.07;;;60.97;;
13605;SDS011;6874;52.084;5.090;2023-03-14T08:41:32;59.33;;;57.30;;
13605;SDS011;6874;52.084;5.090;2023-03-14T08:43:59;65.00;;;62.77;;
13605;SDS011;6874;52.084;5.090;2023-03-14T08:46:25;64.60;;;62.37;;
13605;SDS011;6874;52.084;5.090;2023-03-14T08:48:51;70.90;;;68.37;;
13605;SDS011;6874;52.084;5.090;2023-03-14T08:51:16;69.00;;;66.57;;
13605;SDS011;6874;52.084;5.090;2023-03-14T08:53:42;65.77;;;63.43;;
13605;SDS011;6874;52.084;5.090;2023-03-14T08:56:08;63.73;;;61.47;;
13605;SDS011;6874;52.084;5.090;2023-03-14T08:58:35;65.40;;;63.10;;
13605;SDS011;6874;52.084;5.090;2023-03-14T09:01:03;59.90;;;57.80;;
13605;SDS011;6874;52.084;5.090;2023-03-14T09:03:33;58.60;;;56.53;;
13605;SDS011;6874;52.084;5.090;2023-03-14T09:06:02;60.80;;;58.70;;
13605;SDS011;6874;52.084;5.090;2023-03-14T09:08:32;54.80;;;52.90;;
13605;SDS011;6874;52.084;5.090;2023-03-14T09:10:58;56.73;;;54.77;;
13605;SDS011;6874;52.084;5.090;2023-03-14T09:13:24;53.03;;;51.20;;
13605;SDS011;6874;52.084;5.090;2023-03-14T09:15:53;56.53;;;54.53;;
13605;SDS011;6874;52.084;5.090;2023-03-14T09:18:22;51.47;;;49.67;;
13605;SDS011;6874;52.084;5.090;2023-03-14T09:20:47;55.77;;;53.87;;
13605;SDS011;6874;52.084;5.090;2023-03-14T09:23:14;51.07;;;49.33;;
13605;SDS011;6874;52.084;5.090;2023-03-14T09:25:40;52.77;;;50.90;;
13605;SDS011;6874;52.084;5.090;2023-03-14T09:28:06;53.50;;;51.60;;
13605;SDS011;6874;52.084;5.090;2023-03-14T09:30:32;52.07;;;50.23;;
13605;SDS011;6874;52.084;5.090;2023-03-14T09:32:58;61.83;;;59.67;;
13605;SDS011;6874;52.084;5.090;2023-03-14T09:35:24;58.83;;;56.73;;
13605;SDS011;6874;52.084;5.090;2023-03-14T09:37:50;59.83;;;57.70;;
13605;SDS011;6874;52.084;5.090;2023-03-14T09:40:16;62.77;;;60.50;;
13605;SDS011;6874;52.084;5.090;2023-03-14T09:42:43;63.67;;;61.43;;
13605;SDS011;6874;52.084;5.090;2023-03-14T09:45:13;61.30;;;59.13;;
13605;SDS011;6874;52.084;5.090;2023-03-14T09:47:43;55.77;;;53.77;;
13605;SDS011;6874;52.084;5.090;2023-03-14T09:50:14;58.17;;;56.13;;
13605;SDS011;6874;52.084;5.090;2023-03-14T09:52:40;57.00;;;55.00;;
13605;SDS011;6874;52.084;5.090;2023-03-14T09:55:12;56.43;;;54.43;;
13605;SDS011;6874;52.084;5.090;2023-03-14T09:57:46;57.57;;;55.50;;
13605;SDS011;6874;52.084;5.090;2023-03-14T10:00:16;57.93;;;55.83;;
13605;SDS011;6874;52.084;5.090;2023-03-14T10:05:36;54.47;;;52.57;;
13605;SDS011;6874;52.084;5.090;2023-03-14T10:08:02;61.20;;;59.00;;
13605;SDS011;6874;52.084;5.090;2023-03-14T10:10:28;57.43;;;55.43;;
13605;SDS011;6874;52.084;5.090;2023-03-14T10:12:55;55.17;;;53.20;;
13605;SDS011;6874;52.084;5.090;2023-03-14T10:15:32;51.80;;;50.00;;
13605;SDS011;6874;52.084;5.090;2023-03-14T10:18:00;47.83;;;46.13;;
13605;SDS011;6874;52.084;5.090;2023-03-14T10:20:28;53.37;;;51.47;;
13605;SDS011;6874;52.084;5.090;2023-03-14T10:22:59;53.93;;;52.03;;
13605;SDS011;6874;52.084;5.090;2023-03-14T10:25:32;53.90;;;52.00;;
13605;SDS011;6874;52.084;5.090;2023-03-14T10:28:03;58.20;;;56.13;;
13605;SDS011;6874;52.084;5.090;2023-03-14T10:33:19;57.07;;;55.07;;
13605;SDS011;6874;52.084;5.090;2023-03-14T10:35:46;47.87;;;46.20;;
13605;SDS011;6874;52.084;5.090;2023-03-14T10:38:18;49.10;;;47.37;;
13605;SDS011;6874;52.084;5.090;2023-03-14T10:40:48;55.47;;;53.53;;
13605;SDS011;6874;52.084;5.090;2023-03-14T10:43:39;51.60;;;49.83;;
13605;SDS011;6874;52.084;5.090;2023-03-14T10:46:16;47.53;;;45.87;;
13605;SDS011;6874;52.084;5.090;2023-03-14T10:48:43;48.30;;;46.63;;
13605;SDS011;6874;52.084;5.090;2023-03-14T10:56:17;50.60;;;48.80;;
13605;SDS011;6874;52.084;5.090;2023-03-14T10:58:44;45.80;;;44.20;;
13605;SDS011;6874;52.084;5.090;2023-03-14T11:04:01;36.97;;;35.73;;
13605;SDS011;6874;52.084;5.090;2023-03-14T11:06:34;32.77;;;31.67;;
13605;SDS011;6874;52.084;5.090;2023-03-14T11:09:18;29.70;;;28.73;;
13605;SDS011;6874;52.084;5.090;2023-03-14T11:11:53;27.83;;;26.93;;
13605;SDS011;6874;52.084;5.090;2023-03-14T11:14:26;29.83;;;28.87;;
13605;SDS011;6874;52.084;5.090;2023-03-14T11:17:00;30.57;;;29.53;;
13605;SDS011;6874;52.084;5.090;2023-03-14T11:19:50;37.80;;;36.50;;
13605;SDS011;6874;52.084;5.090;2023-03-14T11:25:07;60.00;;;57.90;;
13605;SDS011;6874;52.084;5.090;2023-03-14T11:27:41;58.27;;;56.23;;
13605;SDS011;6874;52.084;5.090;2023-03-14T11:30:54;67.47;;;65.00;;
13605;SDS011;6874;52.084;5.090;2023-03-14T11:33:21;45.87;;;44.27;;
13605;SDS011;6874;52.084;5.090;2023-03-14T11:35:55;38.83;;;37.47;;
13605;SDS011;6874;52.084;5.090;2023-03-14T11:38:32;43.57;;;42.07;;
13605;SDS011;6874;52.084;5.090;2023-03-14T11:41:09;41.73;;;40.33;;
13605;SDS011;6874;52.084;5.090;2023-03-14T11:43:40;46.30;;;44.70;;
13605;SDS011;6874;52.084;5.090;2023-03-14T11:46:09;43.90;;;42.40;;
13605;SDS011;6874;52.084;5.090;2023-03-14T11:51:40;38.63;;;37.33;;
13605;SDS011;6874;52.084;5.090;2023-03-14T11:57:25;38.57;;;37.30;;
13605;SDS011;6874;52.084;5.090;2023-03-14T12:00:04;54.57;;;52.77;;
13605;SDS011;6874;52.084;5.090;2023-03-14T12:02:56;62.30;;;60.20;;
13605;SDS011;6874;52.084;5.090;2023-03-14T12:10:52;59.13;;;57.13;;
13605;SDS011;6874;52.084;5.090;2023-03-14T12:13:21;61.30;;;59.20;;
13605;SDS011;6874;52.084;5.090;2023-03-14T12:15:54;61.57;;;59.47;;
13605;SDS011;6874;52.084;5.090;2023-03-14T12:18:27;48.33;;;46.73;;
13605;SDS011;6874;52.084;5.090;2023-03-14T12:21:01;37.40;;;36.17;;
13605;SDS011;6874;52.084;5.090;2023-03-14T12:24:02;33.63;;;32.53;;
13605;SDS011;6874;52.084;5.090;2023-03-14T12:26:23;34.47;;;33.37;;
13605;SDS011;6874;52.084;5.090;2023-03-14T12:28:51;31.70;;;30.70;;
13605;SDS011;6874;52.084;5.090;2023-03-14T12:31:38;30.73;;;29.73;;
13605;SDS011;6874;52.084;5.090;2023-03-14T12:39:19;34.13;;;33.03;;
13605;SDS011;6874;52.084;5.090;2023-03-14T12:42:09;31.47;;;30.47;;
13605;SDS011;6874;52.084;5.090;2023-03-14T12:44:51;39.67;;;38.37;;
13605;SDS011;6874;52.084;5.090;2023-03-14T12:52:16;39.87;;;38.60;;
13605;SDS011;6874;52.084;5.090;2023-03-14T12:54:59;33.27;;;32.20;;
13605;SDS011;6874;52.084;5.090;2023-03-14T12:57:42;39.13;;;37.87;;
13605;SDS011;6874;52.084;5.090;2023-03-14T13:00:16;46.20;;;44.67;;
13605;SDS011;6874;52.084;5.090;2023-03-14T13:02:47;46.50;;;44.97;;
13605;SDS011;6874;52.084;5.090;2023-03-14T13:05:21;39.97;;;38.63;;
13605;SDS011;6874;52.084;5.090;2023-03-14T13:12:54;40.03;;;38.70;;
13605;SDS011;6874;52.084;5.090;2023-03-14T13:18:10;46.33;;;44.83;;
13605;SDS011;6874;52.084;5.090;2023-03-14T13:20:41;40.13;;;38.83;;
13605;SDS011;6874;52.084;5.090;2023-03-14T13:23:22;49.27;;;47.63;;
13605;SDS011;6874;52.084;5.090;2023-03-14T13:25:54;63.17;;;61.00;;
13605;SDS011;6874;52.084;5.090;2023-03-14T13:28:20;89.83;;;86.73;;
13605;SDS011;6874;52.084;5.090;2023-03-14T13:30:47;73.07;;;70.57;;
13605;SDS011;6874;52.084;5.090;2023-03-14T13:33:15;69.70;;;67.27;;
13605;SDS011;6874;52.084;5.090;2023-03-14T13:36:02;47.93;;;46.23;;
13605;SDS011;6874;52.084;5.090;2023-03-14T13:38:30;47.90;;;46.20;;
13605;SDS011;6874;52.084;5.090;2023-03-14T13:40:59;42.73;;;41.23;;
13605;SDS011;6874;52.084;5.090;2023-03-14T13:43:30;48.93;;;47.23;;
13605;SDS011;6874;52.084;5.090;2023-03-14T13:48:27;96.73;;;93.43;;
13605;SDS011;6874;52.084;5.090;2023-03-14T13:51:02;112.03;;;108.13;;
13605;SDS011;6874;52.084;5.090;2023-03-14T13:53:33;115.23;;;111.27;;
13605;SDS011;6874;52.084;5.090;2023-03-14T13:56:08;111.67;;;107.83;;
13605;SDS011;6874;52.084;5.090;2023-03-14T13:58:36;103.13;;;99.53;;
13605;SDS011;6874;52.084;5.090;2023-03-14T14:01:45;91.73;;;88.50;;
13605;SDS011;6874;52.084;5.090;2023-03-14T14:03:56;80.80;;;77.97;;
13605;SDS011;6874;52.084;5.090;2023-03-14T14:06:30;74.57;;;71.90;;
13605;SDS011;6874;52.084;5.090;2023-03-14T14:08:59;65.17;;;62.87;;
13605;SDS011;6874;52.084;5.090;2023-03-14T14:11:42;54.10;;;52.17;;
13605;SDS011;6874;52.084;5.090;2023-03-14T14:14:23;71.00;;;68.40;;
13605;SDS011;6874;52.084;5.090;2023-03-14T14:16:56;64.77;;;62.40;;
13605;SDS011;6874;52.084;5.090;2023-03-14T14:19:23;50.23;;;48.53;;
13605;SDS011;6874;52.084;5.090;2023-03-14T14:21:51;53.90;;;52.10;;
13605;SDS011;6874;52.084;5.090;2023-03-14T14:24:18;78.93;;;76.30;;
13605;SDS011;6874;52.084;5.090;2023-03-14T14:26:48;81.53;;;78.83;;
13605;SDS011;6874;52.084;5.090;2023-03-14T14:29:21;91.53;;;88.50;;
13605;SDS011;6874;52.084;5.090;2023-03-14T14:32:00;104.50;;;101.00;;
13605;SDS011;6874;52.084;5.090;2023-03-14T14:39:56;100.37;;;97.07;;
13605;SDS011;6874;52.084;5.090;2023-03-14T14:42:29;111.40;;;107.67;;
13605;SDS011;6874;52.084;5.090;2023-03-14T14:44:56;112.70;;;108.93;;
13605;SDS011;6874;52.084;5.090;2023-03-14T14:47:25;118.93;;;114.93;;
13605;SDS011;6874;52.084;5.090;2023-03-14T14:49:52;140.03;;;135.27;;
13605;SDS011;6874;52.084;5.090;2023-03-14T14:54:47;173.43;;;167.63;;
13605;SDS011;6874;52.084;5.090;2023-03-14T14:57:54;176.80;;;170.87;;
13605;SDS011;6874;52.084;5.090;2023-03-14T15:00:23;155.30;;;150.07;;
13605;SDS011;6874;52.084;5.090;2023-03-14T15:03:00;149.73;;;144.60;;
13605;SDS011;6874;52.084;5.090;2023-03-14T15:05:26;134.17;;;129.67;;
13605;SDS011;6874;52.084;5.090;2023-03-14T15:07:55;121.20;;;117.13;;
13605;SDS011;6874;52.084;5.090;2023-03-14T15:10:22;107.83;;;104.23;;
13605;SDS011;6874;52.084;5.090;2023-03-14T15:12:49;93.37;;;90.27;;
13605;SDS011;6874;52.084;5.090;2023-03-14T15:15:15;73.27;;;70.87;;
13605;SDS011;6874;52.084;5.090;2023-03-14T15:17:41;73.87;;;71.40;;
13605;SDS011;6874;52.084;5.090;2023-03-14T15:20:11;74.27;;;71.80;;
13605;SDS011;6874;52.084;5.090;2023-03-14T15:22:39;83.13;;;80.40;;
13605;SDS011;6874;52.084;5.090;2023-03-14T15:25:05;80.17;;;77.53;;
13605;SDS011;6874;52.084;5.090;2023-03-14T15:27:31;85.70;;;82.83;;
13605;SDS011;6874;52.084;5.090;2023-03-14T15:29:57;78.00;;;75.40;;